createdAt,value
2018-11-26T00:01:37.976Z,33.17
2018-11-26T00:04:05.904Z,31.50
2018-11-26T00:06:33.796Z,31.90
2018-11-26T00:09:01.711Z,29.13
2018-11-26T00:11:31.973Z,29.80
2018-11-26T00:13:59.895Z,30.33
2018-11-26T00:16:27.790Z,31.47
2018-11-26T00:18:55.754Z,30.60
2018-11-26T00:21:23.676Z,29.60
2018-11-26T00:23:51.585Z,34.37
2018-11-26T00:26:19.486Z,31.17
2018-11-26T00:28:47.392Z,31.03
2018-11-26T00:31:15.293Z,31.80
2018-11-26T00:33:43.196Z,33.27
2018-11-26T00:36:11.108Z,34.87
2018-11-26T00:38:39.027Z,33.27
2018-11-26T00:41:06.939Z,34.13
2018-11-26T00:43:34.840Z,34.43
2018-11-26T00:46:02.752Z,33.40
2018-11-26T00:48:30.652Z,36.23
2018-11-26T00:50:58.569Z,32.67
2018-11-26T00:53:26.457Z,32.03
2018-11-26T00:55:54.384Z,36.50
2018-11-26T00:58:22.281Z,30.03
2018-11-26T01:00:50.165Z,36.73
2018-11-26T01:03:18.068Z,31.77
2018-11-26T01:05:45.988Z,30.87
2018-11-26T01:08:13.975Z,30.17
2018-11-26T01:10:41.881Z,31.20
2018-11-26T01:13:09.804Z,35.30
2018-11-26T01:15:37.704Z,31.97
2018-11-26T01:18:06.081Z,34.70
2018-11-26T01:20:34.008Z,37.37
2018-11-26T01:23:01.967Z,31.60
2018-11-26T01:25:29.869Z,36.17
2018-11-26T01:27:57.761Z,32.50
2018-11-26T01:30:25.718Z,33.87
2018-11-26T01:32:53.604Z,33.57
2018-11-26T01:35:21.499Z,34.43
2018-11-26T01:37:49.408Z,32.13
2018-11-26T01:40:20.901Z,33.17
2018-11-26T01:42:48.928Z,31.03
2018-11-26T01:45:16.863Z,34.97
2018-11-26T01:47:44.760Z,32.33
2018-11-26T01:50:12.712Z,33.47
2018-11-26T01:52:40.624Z,36.03
2018-11-26T01:55:09.733Z,37.07
2018-11-26T01:57:37.695Z,29.90
2018-11-26T02:00:13.508Z,31.17
2018-11-26T02:02:42.156Z,40.93
2018-11-26T02:05:10.385Z,37.00
2018-11-26T02:07:38.376Z,37.03
2018-11-26T02:10:08.699Z,31.67
2018-11-26T02:12:36.676Z,33.83
2018-11-26T02:15:05.332Z,32.83
2018-11-26T02:17:33.252Z,34.03
2018-11-26T02:20:01.144Z,35.33
2018-11-26T02:22:29.056Z,33.77
2018-11-26T02:24:56.942Z,39.03
2018-11-26T02:27:24.851Z,36.70
2018-11-26T02:29:52.747Z,32.50
2018-11-26T02:32:20.657Z,34.17
2018-11-26T02:34:48.580Z,37.63
2018-11-26T02:37:16.476Z,35.87
2018-11-26T02:39:44.389Z,33.07
2018-11-26T02:42:12.344Z,34.10
2018-11-26T02:44:40.332Z,36.33
2018-11-26T02:47:08.228Z,35.90
2018-11-26T02:49:36.122Z,35.90
2018-11-26T02:52:04.048Z,37.93
2018-11-26T02:54:31.935Z,35.60
2018-11-26T02:56:59.833Z,34.50
2018-11-26T02:59:27.746Z,35.17
2018-11-26T03:01:55.681Z,33.73
2018-11-26T03:04:23.596Z,33.47
2018-11-26T03:06:51.509Z,40.93
2018-11-26T03:09:19.433Z,37.70
2018-11-26T03:11:47.340Z,38.27
2018-11-26T03:14:15.270Z,33.50
2018-11-26T03:16:43.174Z,39.63
2018-11-26T03:19:11.080Z,38.40
2018-11-26T03:21:38.987Z,34.63
2018-11-26T03:24:06.940Z,34.60
2018-11-26T03:26:35.040Z,35.00
2018-11-26T03:29:02.959Z,37.60
2018-11-26T03:31:30.845Z,37.47
2018-11-26T03:33:58.756Z,41.50
2018-11-26T03:36:26.627Z,38.17
2018-11-26T03:38:55.401Z,40.10
2018-11-26T03:41:23.831Z,39.37
2018-11-26T03:43:51.713Z,39.43
2018-11-26T03:46:19.619Z,39.93
2018-11-26T03:48:47.501Z,43.13
2018-11-26T03:51:15.416Z,41.93
2018-11-26T03:53:43.318Z,40.73
2018-11-26T03:56:11.254Z,40.17
2018-11-26T03:58:39.125Z,44.27
2018-11-26T04:01:07.340Z,37.00
2018-11-26T04:03:35.224Z,38.73
2018-11-26T04:06:03.878Z,37.57
2018-11-26T04:08:31.783Z,38.77
2018-11-26T04:10:59.681Z,40.10
2018-11-26T04:13:27.589Z,35.83
2018-11-26T04:15:55.492Z,37.40
2018-11-26T04:18:23.376Z,41.83
2018-11-26T04:20:51.307Z,41.50
2018-11-26T04:23:19.225Z,42.33
2018-11-26T04:25:47.153Z,42.60
2018-11-26T04:28:15.059Z,41.60
2018-11-26T04:30:42.948Z,38.43
2018-11-26T04:33:10.860Z,38.77
2018-11-26T04:35:38.764Z,47.50
2018-11-26T04:38:06.662Z,37.37
2018-11-26T04:40:34.580Z,42.43
2018-11-26T04:43:02.481Z,42.50
2018-11-26T04:45:30.413Z,40.57
2018-11-26T04:47:58.329Z,46.53
2018-11-26T04:50:26.280Z,47.60
2018-11-26T04:52:54.159Z,35.60
2018-11-26T04:55:22.036Z,42.60
2018-11-26T04:57:49.932Z,41.80
2018-11-26T05:00:17.832Z,43.97
2018-11-26T05:02:45.720Z,38.73
2018-11-26T05:05:13.748Z,39.87
2018-11-26T05:07:41.644Z,42.23
2018-11-26T05:10:10.773Z,44.97
2018-11-26T05:12:38.670Z,40.13
2018-11-26T05:15:08.141Z,43.70
2018-11-26T05:17:36.040Z,43.50
2018-11-26T05:20:05.741Z,44.90
2018-11-26T05:22:33.612Z,45.93
2018-11-26T05:25:01.513Z,49.20
2018-11-26T05:27:29.433Z,43.07
2018-11-26T05:29:57.341Z,42.33
2018-11-26T05:32:25.259Z,46.07
2018-11-26T05:34:53.137Z,43.30
2018-11-26T05:37:21.045Z,43.17
2018-11-26T05:39:48.920Z,46.20
2018-11-26T05:42:16.853Z,40.93
2018-11-26T05:44:44.732Z,39.50
2018-11-26T05:47:12.632Z,45.73
2018-11-26T05:49:40.537Z,39.43
2018-11-26T05:52:08.422Z,49.70
2018-11-26T05:54:36.370Z,57.67
2018-11-26T05:57:04.270Z,41.27
2018-11-26T05:59:32.186Z,44.60
2018-11-26T06:02:00.111Z,42.73
2018-11-26T06:04:27.984Z,42.00
2018-11-26T06:06:55.895Z,47.33
2018-11-26T06:09:23.813Z,45.03
2018-11-26T06:11:51.721Z,46.97
2018-11-26T06:14:19.644Z,41.53
2018-11-26T06:16:53.453Z,50.33
2018-11-26T06:19:15.449Z,39.47
2018-11-26T06:21:43.372Z,41.27
2018-11-26T06:24:11.314Z,42.87
2018-11-26T06:26:41.001Z,44.27
2018-11-26T06:29:08.905Z,44.90
2018-11-26T06:31:36.811Z,38.30
2018-11-26T06:34:04.860Z,49.00
2018-11-26T06:36:32.765Z,40.67
2018-11-26T06:39:00.684Z,43.17
2018-11-26T06:41:28.597Z,37.27
2018-11-26T06:43:56.523Z,39.03
2018-11-26T06:46:24.460Z,44.40
2018-11-26T06:48:52.348Z,42.23
2018-11-26T06:51:20.258Z,49.70
2018-11-26T06:53:48.150Z,66.00
2018-11-26T06:56:16.057Z,58.03
2018-11-26T06:58:43.965Z,48.40
2018-11-26T07:01:11.868Z,48.57
2018-11-26T07:03:48.514Z,46.23
2018-11-26T07:06:16.508Z,43.33
2018-11-26T07:08:44.425Z,42.40
2018-11-26T07:11:12.316Z,48.70
2018-11-26T07:13:40.208Z,43.03
2018-11-26T07:16:08.144Z,46.40
2018-11-26T07:18:36.169Z,45.60
2018-11-26T07:21:04.163Z,47.97
2018-11-26T07:23:32.080Z,44.80
2018-11-26T07:25:59.982Z,44.77
2018-11-26T07:28:27.929Z,50.23
2018-11-26T07:30:55.830Z,44.80
2018-11-26T07:33:23.728Z,48.90
2018-11-26T07:35:51.646Z,40.90
2018-11-26T07:38:19.550Z,44.63
2018-11-26T07:40:47.451Z,43.90
2018-11-26T07:43:15.425Z,39.23
2018-11-26T07:45:43.348Z,48.57
2018-11-26T07:48:11.999Z,49.17
2018-11-26T07:50:39.901Z,47.07
2018-11-26T07:53:09.067Z,40.87
2018-11-26T07:55:37.428Z,39.80
2018-11-26T07:58:05.364Z,39.03
2018-11-26T08:00:33.252Z,40.00
2018-11-26T08:03:01.145Z,35.83
2018-11-26T08:05:29.036Z,47.80
2018-11-26T08:07:56.944Z,55.13
2018-11-26T08:10:24.928Z,57.03
2018-11-26T08:12:53.968Z,49.13
2018-11-26T08:15:23.787Z,40.73
2018-11-26T08:17:51.713Z,43.10
2018-11-26T08:20:19.595Z,36.77
2018-11-26T08:22:47.615Z,30.13
2018-11-26T08:25:17.707Z,38.40
2018-11-26T08:27:46.620Z,36.97
2018-11-26T08:30:18.383Z,34.80
2018-11-26T08:32:47.560Z,33.40
2018-11-26T08:35:16.438Z,38.40
2018-11-26T08:38:52.634Z,34.47
2018-11-26T08:41:24.797Z,35.57
2018-11-26T08:43:57.731Z,37.50
2018-11-26T08:46:32.425Z,49.70
2018-11-26T08:49:02.235Z,35.20
2018-11-26T08:51:30.336Z,32.43
2018-11-26T08:53:58.264Z,40.97
2018-11-26T08:56:26.184Z,45.60
2018-11-26T08:58:54.073Z,31.73
2018-11-26T09:01:27.339Z,34.03
2018-11-26T09:03:56.118Z,25.03
2018-11-26T09:06:24.096Z,29.97
2018-11-26T09:08:52.021Z,25.50
2018-11-26T09:11:19.938Z,25.53
2018-11-26T09:13:47.832Z,28.63
2018-11-26T09:16:15.732Z,26.33
2018-11-26T09:18:43.641Z,29.53
2018-11-26T09:21:11.543Z,32.53
2018-11-26T09:23:39.436Z,26.80
2018-11-26T09:26:07.329Z,25.20
2018-11-26T09:28:35.224Z,26.10
2018-11-26T09:31:03.117Z,25.40
2018-11-26T09:33:31.049Z,25.17
2018-11-26T09:35:58.920Z,24.17
2018-11-26T09:38:26.884Z,22.83
2018-11-26T09:40:54.838Z,25.03
2018-11-26T09:43:22.752Z,22.87
2018-11-26T09:45:50.673Z,23.87
2018-11-26T09:48:18.580Z,25.03
2018-11-26T09:50:46.477Z,24.17
2018-11-26T09:53:14.393Z,25.60
2018-11-26T09:55:42.300Z,27.77
2018-11-26T09:58:10.209Z,22.10
2018-11-26T10:00:38.091Z,24.27
2018-11-26T10:03:06.008Z,22.47
2018-11-26T10:05:33.888Z,27.80
2018-11-26T10:08:01.803Z,25.07
2018-11-26T10:10:29.710Z,28.20
2018-11-26T10:12:57.609Z,26.23
2018-11-26T10:15:26.465Z,21.97
2018-11-26T10:17:54.371Z,22.20
2018-11-26T10:20:22.282Z,26.33
2018-11-26T10:22:51.332Z,24.83
2018-11-26T10:25:20.216Z,24.53
2018-11-26T10:27:48.139Z,25.40
2018-11-26T10:30:17.380Z,23.40
2018-11-26T10:32:45.815Z,24.80
2018-11-26T10:35:14.726Z,22.17
2018-11-26T10:37:42.617Z,26.60
2018-11-26T10:40:20.840Z,22.70
2018-11-26T10:42:48.757Z,22.83
2018-11-26T10:45:17.742Z,22.97
2018-11-26T10:47:45.665Z,23.17
2018-11-26T10:50:15.085Z,22.67
2018-11-26T10:52:43.925Z,21.83
2018-11-26T10:55:19.980Z,22.93
2018-11-26T10:57:47.868Z,24.20
2018-11-26T11:00:21.797Z,22.93
2018-11-26T11:02:50.047Z,22.70
2018-11-26T11:05:17.994Z,25.30
2018-11-26T11:07:45.940Z,24.13
2018-11-26T11:10:18.022Z,23.27
2018-11-26T11:12:45.928Z,22.70
2018-11-26T11:15:13.993Z,22.33
2018-11-26T11:17:41.945Z,25.60
2018-11-26T11:20:11.548Z,24.60
2018-11-26T11:22:39.460Z,24.17
2018-11-26T11:25:08.309Z,22.20
2018-11-26T11:27:36.224Z,22.77
2018-11-26T11:30:08.213Z,22.57
2018-11-26T11:32:36.133Z,25.37
2018-11-26T11:35:04.354Z,21.90
2018-11-26T11:37:32.422Z,23.80
2018-11-26T11:40:00.337Z,21.13
2018-11-26T11:42:28.225Z,25.10
2018-11-26T11:44:56.138Z,24.17
2018-11-26T11:47:24.038Z,21.80
2018-11-26T11:49:51.963Z,24.03
2018-11-26T11:52:19.862Z,25.43
2018-11-26T11:54:47.770Z,22.80
2018-11-26T11:57:15.678Z,23.20
2018-11-26T11:59:43.589Z,25.10
2018-11-26T12:02:15.984Z,27.80
2018-11-26T12:04:41.035Z,25.30
2018-11-26T12:07:08.952Z,29.27
2018-11-26T12:09:36.846Z,24.83
2018-11-26T12:12:04.745Z,24.03
2018-11-26T12:14:32.690Z,20.03
2018-11-26T12:17:00.630Z,21.93
2018-11-26T12:19:28.528Z,21.83
2018-11-26T12:21:56.466Z,22.57
2018-11-26T12:24:24.389Z,23.93
2018-11-26T12:26:52.286Z,26.23
2018-11-26T12:29:20.194Z,25.00
2018-11-26T12:31:48.089Z,24.67
2018-11-26T12:34:16.021Z,25.70
2018-11-26T12:36:43.942Z,21.40
2018-11-26T12:39:11.869Z,30.47
2018-11-26T12:41:39.769Z,26.80
2018-11-26T12:44:07.701Z,21.33
2018-11-26T12:46:35.615Z,20.47
2018-11-26T12:49:03.531Z,21.40
2018-11-26T12:51:31.808Z,21.37
2018-11-26T12:53:59.378Z,19.50
2018-11-26T12:56:27.334Z,45.97
2018-11-26T12:58:55.238Z,34.17
2018-11-26T13:01:23.145Z,30.13
2018-11-26T13:03:51.049Z,22.50
2018-11-26T13:06:18.966Z,20.30
2018-11-26T13:08:46.888Z,19.87
2018-11-26T13:11:14.808Z,19.03
2018-11-26T13:13:42.746Z,18.10
2018-11-26T13:16:10.652Z,16.97
2018-11-26T13:18:38.565Z,19.57
2018-11-26T13:21:06.514Z,19.30
2018-11-26T13:23:34.444Z,19.53
2018-11-26T13:26:02.391Z,22.83
2018-11-26T13:28:30.303Z,18.63
2018-11-26T13:30:58.201Z,17.60
2018-11-26T13:33:26.125Z,19.77
2018-11-26T13:35:54.021Z,19.07
2018-11-26T13:38:21.929Z,19.70
2018-11-26T13:40:49.845Z,20.10
2018-11-26T13:43:17.991Z,20.50
2018-11-26T13:45:48.031Z,21.67
2018-11-26T13:48:17.085Z,22.73
2018-11-26T13:50:49.898Z,28.03
2018-11-26T13:53:17.799Z,21.80
2018-11-26T13:55:45.743Z,20.00
2018-11-26T13:58:13.648Z,20.40
2018-11-26T14:00:41.609Z,19.70
2018-11-26T14:03:09.505Z,19.80
2018-11-26T14:05:37.433Z,21.57
2018-11-26T14:08:05.549Z,24.30
2018-11-26T14:10:33.510Z,23.27
2018-11-26T14:13:06.292Z,21.47
2018-11-26T14:15:34.222Z,21.57
2018-11-26T14:18:02.149Z,23.53
2018-11-26T14:20:30.075Z,21.30
2018-11-26T14:22:58.010Z,21.13
2018-11-26T14:25:25.931Z,19.17
2018-11-26T14:27:53.886Z,19.83
2018-11-26T14:30:25.500Z,25.10
2018-11-26T14:32:53.738Z,19.93
2018-11-26T14:35:21.767Z,21.07
2018-11-26T14:37:51.722Z,19.93
2018-11-26T14:40:23.257Z,21.70
2018-11-26T14:42:51.214Z,18.13
2018-11-26T14:45:19.109Z,20.63
2018-11-26T14:47:47.036Z,21.20
2018-11-26T14:50:16.065Z,21.53
2018-11-26T14:52:45.061Z,23.23
2018-11-26T14:55:17.331Z,21.63
2018-11-26T14:57:45.246Z,23.20
2018-11-26T15:00:15.471Z,21.03
2018-11-26T15:02:43.818Z,20.53
2018-11-26T15:05:11.657Z,20.60
2018-11-26T15:07:39.589Z,21.03
2018-11-26T15:10:09.865Z,20.13
2018-11-26T15:12:37.826Z,20.93
2018-11-26T15:15:08.634Z,21.60
2018-11-26T15:17:36.574Z,21.00
2018-11-26T15:20:07.375Z,22.90
2018-11-26T15:22:35.301Z,20.30
2018-11-26T15:25:03.195Z,22.13
2018-11-26T15:27:31.089Z,22.60
2018-11-26T15:29:59.019Z,22.47
2018-11-26T15:32:26.969Z,24.93
2018-11-26T15:34:54.886Z,23.63
2018-11-26T15:37:22.901Z,25.13
2018-11-26T15:39:50.850Z,22.80
2018-11-26T15:42:18.813Z,23.20
2018-11-26T15:44:46.709Z,21.07
2018-11-26T15:47:14.641Z,22.40
2018-11-26T15:49:42.577Z,20.87
2018-11-26T15:52:10.493Z,21.63
2018-11-26T15:54:38.417Z,21.73
2018-11-26T15:57:06.358Z,21.97
2018-11-26T15:59:34.261Z,22.63
2018-11-26T16:02:02.163Z,19.87
2018-11-26T16:04:30.082Z,22.53
2018-11-26T16:06:57.974Z,19.47
2018-11-26T16:09:25.890Z,21.63
2018-11-26T16:11:53.833Z,18.33
2018-11-26T16:14:21.753Z,22.13
2018-11-26T16:16:49.661Z,24.23
2018-11-26T16:19:17.621Z,24.27
2018-11-26T16:21:45.574Z,23.03
2018-11-26T16:24:13.518Z,19.87
2018-11-26T16:26:41.450Z,20.23
2018-11-26T16:29:09.422Z,22.27
2018-11-26T16:31:37.406Z,23.13
2018-11-26T16:34:05.974Z,20.67
2018-11-26T16:36:33.906Z,25.57
2018-11-26T16:39:01.908Z,24.07
2018-11-26T16:41:29.821Z,22.13
2018-11-26T16:43:57.742Z,24.43
2018-11-26T16:46:25.701Z,22.40
2018-11-26T16:48:53.625Z,22.43
2018-11-26T16:51:21.549Z,25.93
2018-11-26T16:53:49.477Z,23.30
2018-11-26T16:56:17.409Z,26.93
2018-11-26T16:58:45.343Z,23.20
2018-11-26T17:01:13.251Z,25.20
2018-11-26T17:03:41.169Z,25.50
2018-11-26T17:06:09.078Z,25.17
2018-11-26T17:08:37.020Z,24.97
2018-11-26T17:11:04.941Z,26.10
2018-11-26T17:13:32.863Z,24.20
2018-11-26T17:16:00.816Z,24.80
2018-11-26T17:18:28.743Z,24.40
2018-11-26T17:20:56.678Z,25.93
2018-11-26T17:23:24.675Z,22.67
2018-11-26T17:25:52.581Z,25.07
2018-11-26T17:28:20.517Z,25.10
2018-11-26T17:30:48.466Z,22.33
2018-11-26T17:33:16.405Z,24.77
2018-11-26T17:35:44.318Z,23.20
2018-11-26T17:38:12.272Z,24.67
2018-11-26T17:40:40.614Z,25.67
2018-11-26T17:43:10.191Z,24.53
2018-11-26T17:45:38.147Z,23.33
2018-11-26T17:48:06.575Z,20.80
2018-11-26T17:50:37.814Z,23.23
2018-11-26T17:53:11.545Z,20.97
2018-11-26T17:55:48.286Z,22.93
2018-11-26T17:58:16.572Z,20.27
2018-11-26T18:00:46.309Z,24.03
2018-11-26T18:03:18.115Z,22.03
2018-11-26T18:05:46.173Z,23.70
2018-11-26T18:08:15.729Z,24.83
2018-11-26T18:10:43.700Z,22.37
2018-11-26T18:13:11.618Z,24.33
2018-11-26T18:15:39.526Z,22.00
2018-11-26T18:18:10.665Z,22.93
2018-11-26T18:20:38.649Z,21.67
2018-11-26T18:23:07.621Z,21.03
2018-11-26T18:25:35.554Z,19.03
2018-11-26T18:28:05.408Z,19.90
2018-11-26T18:30:36.037Z,20.83
2018-11-26T18:33:03.958Z,24.27
2018-11-26T18:35:31.885Z,24.20
2018-11-26T18:37:59.806Z,23.00
2018-11-26T18:40:27.782Z,26.07
2018-11-26T18:42:55.700Z,27.70
2018-11-26T18:45:23.627Z,26.87
2018-11-26T18:47:51.559Z,29.13
2018-11-26T18:50:20.430Z,27.10
2018-11-26T18:52:49.317Z,31.40
2018-11-26T18:55:17.498Z,31.13
2018-11-26T18:57:45.439Z,31.60
2018-11-26T19:00:14.866Z,30.67
2018-11-26T19:02:42.843Z,29.23
2018-11-26T19:05:11.466Z,31.97
2018-11-26T19:07:39.379Z,32.13
2018-11-26T19:10:13.671Z,36.63
2018-11-26T19:12:42.322Z,38.03
2018-11-26T19:15:16.134Z,36.10
2018-11-26T19:17:44.101Z,36.73
2018-11-26T19:20:12.455Z,38.10
2018-11-26T19:22:40.875Z,35.83
2018-11-26T19:25:10.269Z,36.67
2018-11-26T19:27:38.207Z,37.83
2018-11-26T19:30:11.031Z,37.33
2018-11-26T19:32:39.281Z,38.13
2018-11-26T19:35:08.698Z,38.37
2018-11-26T19:37:36.611Z,39.90
2018-11-26T19:40:12.228Z,34.50
2018-11-26T19:42:40.505Z,41.07
2018-11-26T19:45:12.464Z,40.53
2018-11-26T19:47:40.394Z,43.03
2018-11-26T19:50:10.258Z,37.20
2018-11-26T19:52:38.173Z,37.73
2018-11-26T19:55:09.218Z,44.67
2018-11-26T19:57:37.145Z,40.77
2018-11-26T20:00:09.651Z,38.33
2018-11-26T20:02:37.562Z,41.47
2018-11-26T20:05:09.213Z,42.17
2018-11-26T20:07:37.145Z,38.30
2018-11-26T20:10:06.467Z,40.97
2018-11-26T20:12:34.397Z,42.73
2018-11-26T20:15:03.347Z,41.53
2018-11-26T20:17:31.370Z,44.90
2018-11-26T20:19:59.285Z,42.67
2018-11-26T20:22:27.266Z,45.57
2018-11-26T20:24:55.169Z,48.03
2018-11-26T20:27:23.069Z,44.10
2018-11-26T20:29:51.016Z,48.10
2018-11-26T20:32:18.941Z,48.83
2018-11-26T20:34:46.957Z,48.07
2018-11-26T20:37:14.873Z,48.50
2018-11-26T20:39:42.822Z,46.57
2018-11-26T20:42:10.789Z,48.67
2018-11-26T20:44:38.730Z,47.80
2018-11-26T20:47:07.306Z,48.70
2018-11-26T20:49:35.246Z,48.50
2018-11-26T20:52:03.190Z,47.37
2018-11-26T20:54:31.131Z,47.20
2018-11-26T20:56:59.078Z,47.10
2018-11-26T20:59:27.021Z,46.37
2018-11-26T21:01:54.974Z,48.63
2018-11-26T21:04:22.949Z,50.03
2018-11-26T21:06:50.882Z,44.57
2018-11-26T21:09:18.873Z,44.37
2018-11-26T21:11:46.829Z,46.70
2018-11-26T21:14:14.834Z,48.63
2018-11-26T21:16:42.761Z,49.43
2018-11-26T21:19:10.962Z,50.20
2018-11-26T21:21:38.918Z,44.43
2018-11-26T21:24:06.845Z,50.57
2018-11-26T21:26:34.859Z,46.60
2018-11-26T21:29:02.883Z,53.20
2018-11-26T21:31:30.854Z,47.23
2018-11-26T21:33:58.770Z,51.00
2018-11-26T21:36:26.678Z,47.03
2018-11-26T21:38:54.806Z,49.33
2018-11-26T21:41:23.418Z,49.63
2018-11-26T21:43:51.425Z,50.87
2018-11-26T21:46:19.365Z,49.17
2018-11-26T21:48:47.291Z,47.83
2018-11-26T21:51:15.222Z,46.37
2018-11-26T21:53:43.159Z,50.10
2018-11-26T21:56:11.078Z,52.87
2018-11-26T21:58:39.007Z,49.67
2018-11-26T22:01:08.677Z,49.80
2018-11-26T22:03:36.697Z,52.83
2018-11-26T22:06:05.166Z,52.03
2018-11-26T22:08:33.088Z,48.90
2018-11-26T22:11:01.191Z,52.87
2018-11-26T22:13:29.207Z,51.33
2018-11-26T22:15:57.113Z,50.90
2018-11-26T22:18:25.200Z,49.33
2018-11-26T22:20:53.109Z,52.50
2018-11-26T22:23:21.085Z,51.93
2018-11-26T22:25:48.980Z,52.53
2018-11-26T22:28:16.860Z,51.67
2018-11-26T22:30:44.763Z,55.43
2018-11-26T22:33:12.680Z,54.47
2018-11-26T22:35:40.680Z,57.53
2018-11-26T22:38:08.614Z,54.70
2018-11-26T22:40:36.576Z,48.47
2018-11-26T22:43:04.489Z,52.37
2018-11-26T22:45:33.441Z,50.33
2018-11-26T22:48:11.296Z,50.17
2018-11-26T22:50:41.200Z,50.00
2018-11-26T22:53:09.502Z,49.90
2018-11-26T22:55:37.450Z,49.50
2018-11-26T22:58:08.052Z,53.40
2018-11-26T23:00:41.046Z,46.30
2018-11-26T23:03:09.206Z,47.80
2018-11-26T23:05:37.105Z,47.70
2018-11-26T23:08:05.382Z,45.60
2018-11-26T23:10:33.303Z,48.90
2018-11-26T23:13:01.190Z,45.90
2018-11-26T23:15:29.111Z,45.73
2018-11-26T23:17:57.034Z,45.27
2018-11-26T23:20:24.940Z,49.27
2018-11-26T23:22:52.837Z,46.93
2018-11-26T23:25:21.078Z,49.17
2018-11-26T23:27:49.016Z,41.57
2018-11-26T23:30:25.111Z,44.43
2018-11-26T23:32:58.988Z,43.63
2018-11-26T23:35:26.924Z,41.23
2018-11-26T23:37:54.863Z,40.40
2018-11-26T23:40:22.764Z,31.87
2018-11-26T23:42:50.967Z,34.30
2018-11-26T23:45:19.917Z,30.63
2018-11-26T23:47:47.815Z,34.30
2018-11-26T23:50:16.568Z,29.93
2018-11-26T23:52:44.904Z,29.43
2018-11-26T23:55:14.057Z,29.23
2018-11-26T23:57:42.191Z,28.60
